createdAt,value
2024-05-09T01:19:39.514Z,2.17
2024-05-09T01:38:38.071Z,2.72
2024-05-09T01:53:25.240Z,3.53
2024-05-09T02:08:29.287Z,1.80
2024-05-09T02:11:00.628Z,1.70
2024-05-09T02:24:44.506Z,1.75
2024-05-09T02:27:16.330Z,1.60
2024-05-09T02:29:48.161Z,1.67
2024-05-09T02:44:03.438Z,2.33
2024-05-09T02:46:36.898Z,2.53
2024-05-09T02:49:07.570Z,2.55
2024-05-09T02:51:37.875Z,2.73
2024-05-09T02:54:09.452Z,3.00
2024-05-09T02:56:40.443Z,2.35
2024-05-09T02:59:11.057Z,2.80
2024-05-09T03:01:41.356Z,2.45
2024-05-09T03:04:12.042Z,2.65
2024-05-09T03:06:45.631Z,2.28
2024-05-09T03:09:16.097Z,2.40
2024-05-09T03:11:47.581Z,2.30
2024-05-09T03:14:21.755Z,2.80
2024-05-09T03:16:52.551Z,3.05
2024-05-09T03:19:23.258Z,2.63
2024-05-09T03:21:53.947Z,2.63
2024-05-09T03:24:24.519Z,2.40
2024-05-09T03:26:54.874Z,2.27
2024-05-09T03:29:25.626Z,2.35
2024-05-09T03:31:57.166Z,2.35
2024-05-09T03:34:27.697Z,2.50
2024-05-09T03:36:58.400Z,3.00
2024-05-09T03:39:28.926Z,2.72
2024-05-09T03:41:59.525Z,2.58
2024-05-09T03:44:30.122Z,2.83
2024-05-09T03:47:00.776Z,2.95
2024-05-09T03:49:31.396Z,2.45
2024-05-09T03:52:06.668Z,2.40
2024-05-09T03:54:46.685Z,2.42
2024-05-09T03:57:17.272Z,2.72
2024-05-09T03:59:47.921Z,2.65
2024-05-09T04:02:18.556Z,2.40
2024-05-09T04:04:49.411Z,2.80
2024-05-09T04:07:19.960Z,2.30
2024-05-09T04:09:50.156Z,2.37
2024-05-09T04:12:21.390Z,2.30
2024-05-09T04:14:52.103Z,2.55
2024-05-09T04:17:22.440Z,2.55
2024-05-09T04:19:53.168Z,2.50
2024-05-09T04:22:23.763Z,2.40
2024-05-09T04:24:54.796Z,2.55
2024-05-09T04:27:25.404Z,2.67
2024-05-09T04:29:56.076Z,2.50
2024-05-09T04:32:26.722Z,2.60
2024-05-09T04:34:57.496Z,2.30
2024-05-09T04:37:28.560Z,2.78
2024-05-09T04:39:59.730Z,2.00
2024-05-09T04:42:30.580Z,2.50
2024-05-09T04:45:00.987Z,2.38
2024-05-09T04:47:32.628Z,2.33
2024-05-09T04:50:03.601Z,2.17
2024-05-09T04:52:33.978Z,2.83
2024-05-09T04:55:04.558Z,2.83
2024-05-09T04:57:35.007Z,2.50
2024-05-09T05:00:09.437Z,2.58
2024-05-09T05:02:45.236Z,2.65
2024-05-09T05:05:15.931Z,2.97
2024-05-09T05:07:46.701Z,2.43
2024-05-09T05:10:25.105Z,2.80
2024-05-09T05:13:19.312Z,3.05
2024-05-09T05:15:53.323Z,3.40
2024-05-09T05:18:25.702Z,3.08
2024-05-09T05:20:58.062Z,3.65
2024-05-09T05:23:28.678Z,3.53
2024-05-09T05:25:59.105Z,3.28
2024-05-09T05:28:29.697Z,3.00
2024-05-09T05:31:00.361Z,3.00
2024-05-09T05:33:31.854Z,2.65
2024-05-09T05:36:02.694Z,2.70
2024-05-09T05:38:33.322Z,2.17
2024-05-09T05:41:04.007Z,2.05
2024-05-09T05:43:34.637Z,2.43
2024-05-09T05:46:05.440Z,2.65
2024-05-09T05:48:36.196Z,2.72
2024-05-09T05:51:08.019Z,2.10
2024-05-09T05:53:38.766Z,2.25
2024-05-09T05:56:10.143Z,2.70
2024-05-09T05:58:40.912Z,2.30
2024-05-09T06:01:11.526Z,2.58
2024-05-09T06:03:42.477Z,2.70
2024-05-09T06:06:15.586Z,2.85
2024-05-09T06:08:47.513Z,2.67
2024-05-09T06:11:18.316Z,3.80
2024-05-09T06:13:49.116Z,3.10
2024-05-09T06:16:19.482Z,3.05
2024-05-09T06:18:50.127Z,3.17
2024-05-09T06:21:21.166Z,2.90
2024-05-09T06:23:52.071Z,2.50
2024-05-09T06:26:23.786Z,3.07
2024-05-09T06:28:54.175Z,3.00
2024-05-09T06:31:24.582Z,3.05
2024-05-09T06:33:55.110Z,2.97
2024-05-09T06:36:25.579Z,2.65
2024-05-09T06:38:55.959Z,2.80
2024-05-09T06:41:29.369Z,2.70
2024-05-09T06:44:02.484Z,2.65
2024-05-09T06:46:33.745Z,2.87
2024-05-09T06:49:09.698Z,2.70
2024-05-09T06:51:40.682Z,2.90
2024-05-09T06:54:11.849Z,3.33
2024-05-09T06:56:42.380Z,3.07
2024-05-09T06:59:13.112Z,2.50
2024-05-09T07:01:45.122Z,3.00
2024-05-09T07:04:16.298Z,3.00
2024-05-09T07:06:47.051Z,2.92
2024-05-09T07:09:17.699Z,3.22
2024-05-09T07:11:48.328Z,2.97
2024-05-09T07:14:20.050Z,2.90
2024-05-09T07:16:50.992Z,2.47
2024-05-09T07:19:21.804Z,2.58
2024-05-09T07:21:53.437Z,2.80
2024-05-09T07:24:23.929Z,3.10
2024-05-09T07:26:54.767Z,3.10
2024-05-09T07:29:25.574Z,3.00
2024-05-09T07:31:56.750Z,2.60
2024-05-09T07:34:27.464Z,2.85
2024-05-09T07:36:58.537Z,2.70
2024-05-09T07:39:29.659Z,2.80
2024-05-09T07:42:00.158Z,3.10
2024-05-09T07:44:32.148Z,3.70
2024-05-09T07:54:43.026Z,3.15
2024-05-09T07:57:13.865Z,3.40
2024-05-09T07:59:44.438Z,3.75
2024-05-09T08:02:14.933Z,3.63
2024-05-09T08:04:45.665Z,3.83
2024-05-09T08:07:16.229Z,3.85
2024-05-09T08:09:48.209Z,3.58
2024-05-09T08:12:18.716Z,3.55
2024-05-09T08:14:50.353Z,3.90
2024-05-09T08:17:20.892Z,3.60
2024-05-09T08:19:51.606Z,4.10
2024-05-09T08:22:22.219Z,4.00
2024-05-09T08:24:52.744Z,4.47
2024-05-09T08:27:23.170Z,4.67
2024-05-09T08:29:53.699Z,3.80
2024-05-09T08:32:25.025Z,3.70
2024-05-09T08:34:55.957Z,4.37
2024-05-09T08:37:30.966Z,4.35
2024-05-09T08:40:08.465Z,3.97
2024-05-09T08:42:46.613Z,4.17
2024-05-09T08:45:18.442Z,4.15
2024-05-09T08:47:51.915Z,4.68
2024-05-09T08:50:32.183Z,4.13
2024-05-09T08:53:09.545Z,4.22
2024-05-09T08:55:42.650Z,4.10
2024-05-09T08:58:23.569Z,5.07
2024-05-09T09:00:54.764Z,5.40
2024-05-09T09:03:29.913Z,5.53
2024-05-09T09:06:04.473Z,6.17
2024-05-09T09:08:35.240Z,5.95
2024-05-09T09:11:06.646Z,6.20
2024-05-09T09:13:37.245Z,5.80
2024-05-09T09:16:08.716Z,7.50
2024-05-09T09:18:39.652Z,6.40
2024-05-09T09:21:13.218Z,6.70
2024-05-09T09:23:43.755Z,6.40
2024-05-09T09:26:18.614Z,7.60
2024-05-09T09:28:49.838Z,6.75
2024-05-09T09:31:21.817Z,6.65
2024-05-09T09:33:54.118Z,6.53
2024-05-09T09:36:24.746Z,7.30
2024-05-09T09:38:57.415Z,6.30
2024-05-09T09:41:32.277Z,6.23
2024-05-09T09:44:05.049Z,6.97
2024-05-09T09:46:36.467Z,7.90
2024-05-09T09:49:08.547Z,8.60
2024-05-09T09:51:45.135Z,9.00
2024-05-09T09:54:16.500Z,9.57
2024-05-09T09:56:50.186Z,9.65
2024-05-09T09:59:20.934Z,10.70
2024-05-09T10:01:51.659Z,10.73
2024-05-09T10:04:22.570Z,9.97
2024-05-09T10:07:01.088Z,10.27
2024-05-09T10:09:32.102Z,10.50
2024-05-09T10:12:12.528Z,10.93
2024-05-09T10:14:52.555Z,10.73
2024-05-09T10:17:23.236Z,11.45
2024-05-09T10:20:11.858Z,9.10
2024-05-09T10:22:52.176Z,11.60
2024-05-09T10:25:23.044Z,10.47
2024-05-09T10:28:00.196Z,11.48
2024-05-09T10:30:35.918Z,12.02
2024-05-09T10:33:13.196Z,12.52
2024-05-09T10:35:53.890Z,13.60
2024-05-09T10:38:31.568Z,13.75
2024-05-09T10:41:03.180Z,13.52
2024-05-09T10:43:33.828Z,12.60
2024-05-09T10:46:04.403Z,14.48
2024-05-09T10:48:35.157Z,15.13
2024-05-09T10:51:06.044Z,14.20
2024-05-09T10:53:44.354Z,14.20
2024-05-09T10:56:17.986Z,15.15
2024-05-09T10:58:48.645Z,15.10
2024-05-09T11:01:19.346Z,15.20
2024-05-09T11:03:54.501Z,15.45
2024-05-09T11:06:25.644Z,14.52
2024-05-09T11:08:56.587Z,16.33
2024-05-09T11:11:28.256Z,15.55
2024-05-09T11:13:58.940Z,15.85
2024-05-09T11:16:29.521Z,14.73
2024-05-09T11:19:01.296Z,16.95
2024-05-09T11:21:31.984Z,15.57
2024-05-09T11:24:03.169Z,15.90
2024-05-09T11:26:37.016Z,15.98
2024-05-09T11:29:07.795Z,15.90
2024-05-09T11:31:50.320Z,16.30
2024-05-09T11:34:20.892Z,16.30
2024-05-09T11:36:51.558Z,16.75
2024-05-09T11:39:22.226Z,16.98
2024-05-09T11:41:52.905Z,16.45
2024-05-09T11:44:23.493Z,15.82
2024-05-09T11:46:54.138Z,17.05
2024-05-09T11:49:26.840Z,15.73
2024-05-09T11:51:58.203Z,17.43
2024-05-09T11:54:28.963Z,17.15
2024-05-09T11:56:59.615Z,16.50
2024-05-09T11:59:29.920Z,16.88
2024-05-09T12:02:00.453Z,16.33
2024-05-09T12:04:31.436Z,17.40
2024-05-09T12:07:03.596Z,16.83
2024-05-09T12:09:35.984Z,18.42
2024-05-09T12:12:08.773Z,17.13
2024-05-09T12:14:40.037Z,16.45
2024-05-09T12:17:10.586Z,16.80
2024-05-09T12:19:42.333Z,17.42
2024-05-09T12:22:12.867Z,17.00
2024-05-09T12:24:43.407Z,17.20
2024-05-09T12:27:14.211Z,17.58
2024-05-09T12:29:45.177Z,17.33
2024-05-09T12:32:15.883Z,18.40
2024-05-09T12:34:46.567Z,17.73
2024-05-09T12:37:17.427Z,18.05
2024-05-09T12:39:48.488Z,17.90
2024-05-09T12:42:26.745Z,18.73
2024-05-09T12:44:58.606Z,19.42
2024-05-09T12:47:29.283Z,19.10
2024-05-09T12:50:00.185Z,20.20
2024-05-09T12:52:30.744Z,20.60
2024-05-09T12:55:01.321Z,19.10
2024-05-09T12:57:33.382Z,19.67
2024-05-09T13:00:04.194Z,20.88
2024-05-09T13:02:35.651Z,20.80
2024-05-09T13:05:06.413Z,21.87
2024-05-09T13:07:37.074Z,20.23
2024-05-09T13:10:13.899Z,21.08
2024-05-09T13:12:49.101Z,21.27
2024-05-09T13:15:20.281Z,21.75
2024-05-09T13:17:51.103Z,20.17
2024-05-09T13:20:28.728Z,22.35
2024-05-09T13:23:07.516Z,21.30
2024-05-09T13:25:39.354Z,21.63
2024-05-09T13:28:10.288Z,22.75
2024-05-09T13:30:42.224Z,22.00
2024-05-09T13:33:14.473Z,22.27
2024-05-09T13:35:49.643Z,23.75
2024-05-09T13:38:22.590Z,23.73
2024-05-09T13:40:53.495Z,22.65
2024-05-09T13:43:25.047Z,23.83
2024-05-09T13:45:58.162Z,23.23
2024-05-09T13:48:30.187Z,22.65
2024-05-09T13:51:00.977Z,23.38
2024-05-09T13:53:34.395Z,23.77
2024-05-09T13:56:06.317Z,24.02
2024-05-09T13:58:38.300Z,24.38
2024-05-09T14:01:09.170Z,23.52
2024-05-09T14:03:39.968Z,25.40
2024-05-09T14:06:13.072Z,23.25
2024-05-09T14:08:44.230Z,24.13
2024-05-09T14:11:14.918Z,24.40
2024-05-09T14:13:46.395Z,23.48
2024-05-09T14:16:16.973Z,24.65
2024-05-09T14:18:47.940Z,24.80
2024-05-09T14:21:19.217Z,24.30
2024-05-09T14:23:49.847Z,24.20
2024-05-09T14:26:21.101Z,24.53
2024-05-09T14:28:51.698Z,24.02
2024-05-09T14:31:23.434Z,23.23
2024-05-09T14:33:55.612Z,24.10
2024-05-09T14:36:26.656Z,22.08
2024-05-09T14:38:57.919Z,23.10
2024-05-09T14:41:28.706Z,22.08
2024-05-09T14:43:59.219Z,22.58
2024-05-09T14:46:30.805Z,21.80
2024-05-09T14:49:03.664Z,22.47
2024-05-09T14:51:34.798Z,22.77
2024-05-09T14:54:06.388Z,24.83
2024-05-09T14:56:37.384Z,22.38
2024-05-09T14:59:09.647Z,23.77
2024-05-09T15:01:41.485Z,22.85
2024-05-09T15:04:14.065Z,19.90
2024-05-09T15:06:45.109Z,21.90
2024-05-09T15:09:15.948Z,20.85
2024-05-09T15:11:47.803Z,22.30
2024-05-09T15:14:18.333Z,21.20
2024-05-09T15:16:50.554Z,19.15
2024-05-09T15:19:21.679Z,19.38
2024-05-09T15:21:52.561Z,19.48
2024-05-09T15:24:24.463Z,18.15
2024-05-09T15:26:55.063Z,16.48
2024-05-09T15:29:27.945Z,18.88
2024-05-09T15:31:59.706Z,16.25
2024-05-09T15:34:31.720Z,16.67
2024-05-09T15:37:03.274Z,15.90
2024-05-09T15:39:39.624Z,15.20
2024-05-09T15:42:10.276Z,16.23
2024-05-09T15:44:41.935Z,15.65
2024-05-09T15:47:13.804Z,15.18
2024-05-09T15:49:44.548Z,15.57
2024-05-09T15:52:17.186Z,15.93
2024-05-09T15:54:48.449Z,16.40
2024-05-09T15:57:20.163Z,16.10
2024-05-09T15:59:50.923Z,16.17
2024-05-09T16:02:21.903Z,17.25
2024-05-09T16:04:53.390Z,17.52
2024-05-09T16:07:24.347Z,17.05
2024-05-09T16:09:55.358Z,14.30
2024-05-09T16:12:27.203Z,14.73
2024-05-09T16:14:57.498Z,14.45
2024-05-09T16:17:28.869Z,14.00
2024-05-09T16:20:00.459Z,13.50
2024-05-09T16:22:31.275Z,11.95
2024-05-09T16:25:02.528Z,12.48
2024-05-09T16:27:33.491Z,11.65
2024-05-09T16:30:09.310Z,11.77
2024-05-09T16:32:46.152Z,12.25
2024-05-09T16:35:17.737Z,11.70
2024-05-09T16:37:49.383Z,9.32
2024-05-09T16:40:29.301Z,7.18
2024-05-09T16:43:09.059Z,7.57
2024-05-09T16:45:41.859Z,11.13
2024-05-09T16:48:14.155Z,13.23
2024-05-09T16:50:45.330Z,13.07
2024-05-09T16:53:15.933Z,15.73
2024-05-09T16:55:46.586Z,11.57
2024-05-09T16:58:19.501Z,8.07
2024-05-09T17:00:50.220Z,7.67
2024-05-09T17:03:22.994Z,8.20
2024-05-09T17:05:53.732Z,8.07
2024-05-09T17:08:24.585Z,7.88
2024-05-09T17:10:55.413Z,7.15
2024-05-09T17:13:29.742Z,7.25
2024-05-09T17:16:00.499Z,7.03
2024-05-09T17:18:31.182Z,6.38
2024-05-09T17:21:01.865Z,7.00
2024-05-09T17:23:35.044Z,7.03
2024-05-09T17:26:06.209Z,7.35
2024-05-09T17:28:37.965Z,7.13
2024-05-09T17:31:09.775Z,6.57
2024-05-09T17:33:40.658Z,6.30
2024-05-09T17:36:13.104Z,6.93
2024-05-09T17:38:43.964Z,6.20
2024-05-09T17:41:14.534Z,4.90
2024-05-09T17:43:45.292Z,4.22
2024-05-09T17:46:16.082Z,5.00
2024-05-09T17:48:46.913Z,3.92
2024-05-09T17:51:17.614Z,2.70
2024-05-09T17:53:49.558Z,3.13
2024-05-09T17:56:20.342Z,3.33
2024-05-09T17:58:51.009Z,3.10
2024-05-09T18:01:21.440Z,2.97
2024-05-09T18:03:52.137Z,3.13
2024-05-09T18:06:22.565Z,2.85
2024-05-09T18:08:53.139Z,2.70
2024-05-09T18:11:23.745Z,2.73
2024-05-09T18:13:55.966Z,2.75
2024-05-09T18:16:26.943Z,3.10
2024-05-09T18:18:57.895Z,2.47
2024-05-09T18:21:29.172Z,2.50
2024-05-09T18:24:01.072Z,2.10
2024-05-09T18:26:31.519Z,2.10
2024-05-09T18:29:02.253Z,2.47
2024-05-09T18:31:32.585Z,2.30
2024-05-09T18:34:03.425Z,2.20
2024-05-09T18:36:33.821Z,2.25
2024-05-09T18:39:04.914Z,2.60
2024-05-09T18:41:35.334Z,2.63
2024-05-09T18:44:06.426Z,2.90
2024-05-09T18:46:36.994Z,2.90
2024-05-09T18:49:07.891Z,2.80
2024-05-09T18:51:38.281Z,2.50
2024-05-09T18:54:08.763Z,2.83
2024-05-09T18:56:39.990Z,2.97
2024-05-09T18:59:10.327Z,3.10
2024-05-09T19:01:43.804Z,3.08
2024-05-09T19:04:14.890Z,3.92
2024-05-09T19:06:45.680Z,5.55
2024-05-09T19:09:16.332Z,6.93
2024-05-09T19:11:47.078Z,4.83
